createdAt,value
2019-04-02T00:01:23.975Z,47.30
2019-04-02T00:03:28.700Z,47.40
2019-04-02T00:05:33.536Z,47.30
2019-04-02T00:07:38.414Z,47.30
2019-04-02T00:09:43.570Z,47.20
2019-04-02T00:11:52.422Z,47.20
2019-04-02T00:13:59.076Z,47.10
2019-04-02T00:16:03.906Z,47.10
2019-04-02T00:18:08.869Z,47.00
2019-04-02T00:20:14.980Z,47.00
2019-04-02T00:22:19.899Z,47.00
2019-04-02T00:24:24.907Z,47.20
2019-04-02T00:26:36.969Z,47.10
2019-04-02T00:28:42.303Z,47.00
2019-04-02T00:30:47.217Z,47.20
2019-04-02T00:32:52.007Z,47.00
2019-04-02T00:34:56.907Z,46.90
2019-04-02T00:37:01.912Z,46.90
2019-04-02T00:39:07.409Z,46.90
2019-04-02T00:41:13.982Z,46.90
2019-04-02T00:43:18.761Z,46.90
2019-04-02T00:45:23.615Z,46.90
2019-04-02T00:47:28.780Z,46.80
2019-04-02T00:49:33.921Z,46.80
2019-04-02T00:51:38.744Z,46.70
2019-04-02T00:53:43.546Z,46.80
2019-04-02T00:55:48.420Z,46.70
2019-04-02T00:57:55.565Z,46.70
2019-04-02T01:00:00.375Z,46.60
2019-04-02T01:02:05.543Z,46.70
2019-04-02T01:04:10.732Z,46.50
2019-04-02T01:06:15.995Z,46.60
2019-04-02T01:08:21.024Z,46.60
2019-04-02T01:10:25.939Z,46.60
2019-04-02T01:12:31.821Z,46.60
2019-04-02T01:14:38.367Z,46.50
2019-04-02T01:16:43.133Z,46.60
2019-04-02T01:18:47.958Z,46.50
2019-04-02T01:20:52.808Z,46.50
2019-04-02T01:22:58.807Z,46.50
2019-04-02T01:25:03.834Z,46.60
2019-04-02T01:27:08.780Z,46.40
2019-04-02T01:29:14.968Z,46.40
2019-04-02T01:31:20.491Z,46.50
2019-04-02T01:33:25.724Z,46.40
2019-04-02T01:35:30.642Z,46.30
2019-04-02T01:37:35.460Z,46.30
2019-04-02T01:39:40.300Z,46.40
2019-04-02T01:41:45.201Z,46.30
2019-04-02T01:43:49.980Z,46.40
2019-04-02T01:45:54.769Z,46.30
2019-04-02T01:47:59.801Z,46.30
2019-04-02T01:50:05.267Z,46.20
2019-04-02T01:52:10.162Z,46.30
2019-04-02T01:54:14.922Z,46.20
2019-04-02T01:56:20.176Z,46.30
2019-04-02T01:58:25.720Z,46.10
2019-04-02T02:00:38.266Z,46.30
2019-04-02T02:02:45.324Z,46.30
2019-04-02T02:04:54.429Z,46.30
2019-04-02T02:06:59.580Z,46.20
2019-04-02T02:09:06.535Z,46.10
2019-04-02T02:11:11.568Z,46.10
2019-04-02T02:13:16.339Z,46.10
2019-04-02T02:15:21.120Z,46.20
2019-04-02T02:17:26.088Z,46.00
2019-04-02T02:19:31.216Z,45.90
2019-04-02T02:21:37.909Z,46.00
2019-04-02T02:24:05.210Z,46.10
2019-04-02T02:26:12.401Z,46.00
2019-04-02T02:28:17.400Z,46.00
2019-04-02T02:30:22.287Z,46.10
2019-04-02T02:32:27.102Z,46.00
2019-04-02T02:34:31.960Z,45.90
2019-04-02T02:36:36.703Z,46.00
2019-04-02T02:38:41.759Z,45.90
2019-04-02T02:41:25.123Z,45.80
2019-04-02T02:43:30.099Z,45.90
2019-04-02T02:45:34.897Z,45.90
2019-04-02T02:47:39.779Z,45.80
2019-04-02T02:49:44.748Z,45.80
2019-04-02T02:51:50.128Z,45.90
2019-04-02T02:53:55.050Z,45.90
2019-04-02T02:55:59.875Z,45.80
2019-04-02T02:58:04.667Z,45.80
2019-04-02T03:00:09.494Z,45.70
2019-04-02T03:02:14.518Z,45.70
2019-04-02T03:04:19.666Z,45.80
2019-04-02T03:06:24.493Z,45.70
2019-04-02T03:08:29.416Z,45.60
2019-04-02T03:10:35.263Z,45.70
2019-04-02T03:12:40.715Z,45.70
2019-04-02T03:14:45.537Z,45.80
2019-04-02T03:16:50.878Z,45.60
2019-04-02T03:18:55.760Z,45.70
2019-04-02T03:21:00.571Z,45.70
2019-04-02T03:23:05.643Z,45.60
2019-04-02T03:25:11.423Z,45.60
2019-04-02T03:27:16.187Z,45.40
2019-04-02T03:29:24.003Z,45.60
2019-04-02T03:31:27.774Z,45.60
2019-04-02T03:33:32.655Z,45.50
2019-04-02T03:35:37.502Z,45.70
2019-04-02T03:37:42.304Z,45.60
2019-04-02T03:39:48.124Z,46.20
2019-04-02T03:41:52.868Z,45.50
2019-04-02T03:43:57.803Z,45.60
2019-04-02T03:46:02.614Z,45.50
2019-04-02T03:48:07.493Z,45.40
2019-04-02T03:50:14.994Z,45.50
2019-04-02T03:52:19.025Z,45.40
2019-04-02T03:54:23.985Z,45.40
2019-04-02T03:56:29.015Z,45.30
2019-04-02T03:58:33.914Z,45.40
2019-04-02T04:00:38.875Z,45.40
2019-04-02T04:02:43.680Z,45.40
2019-04-02T04:04:48.473Z,45.40
2019-04-02T04:06:53.395Z,45.40
2019-04-02T04:08:58.252Z,45.30
2019-04-02T04:11:04.786Z,45.30
2019-04-02T04:13:09.674Z,45.20
2019-04-02T04:15:16.129Z,45.30
2019-04-02T04:17:22.563Z,45.20
2019-04-02T04:19:27.332Z,45.30
2019-04-02T04:21:32.183Z,45.30
2019-04-02T04:23:36.974Z,45.30
2019-04-02T04:25:42.097Z,45.10
2019-04-02T04:27:46.895Z,45.60
2019-04-02T04:29:51.876Z,45.30
2019-04-02T04:31:56.702Z,45.20
2019-04-02T04:34:01.611Z,45.10
2019-04-02T04:36:06.499Z,45.10
2019-04-02T04:38:12.296Z,45.10
2019-04-02T04:40:20.093Z,45.10
2019-04-02T04:42:25.329Z,45.10
2019-04-02T04:44:30.151Z,45.10
2019-04-02T04:46:35.046Z,45.00
2019-04-02T04:48:39.963Z,45.20
2019-04-02T04:50:44.712Z,45.20
2019-04-02T04:52:49.512Z,45.00
2019-04-02T04:54:56.574Z,45.10
2019-04-02T04:57:00.902Z,45.00
2019-04-02T04:59:05.930Z,45.10
2019-04-02T05:01:10.670Z,45.00
2019-04-02T05:03:54.250Z,44.90
2019-04-02T05:05:59.076Z,44.80
2019-04-02T05:08:03.856Z,44.80
2019-04-02T05:10:08.614Z,44.80
2019-04-02T05:12:14.355Z,44.70
2019-04-02T05:14:20.024Z,44.60
2019-04-02T05:16:24.834Z,44.60
2019-04-02T05:18:29.747Z,44.60
2019-04-02T05:20:34.595Z,44.60
2019-04-02T05:22:40.534Z,44.60
2019-04-02T05:24:45.725Z,44.60
2019-04-02T05:26:50.610Z,44.70
2019-04-02T05:28:55.656Z,44.70
2019-04-02T05:31:00.459Z,44.80
2019-04-02T05:33:05.554Z,44.80
2019-04-02T05:35:10.954Z,44.80
2019-04-02T05:37:15.856Z,44.80
2019-04-02T05:39:21.654Z,44.90
2019-04-02T05:41:26.499Z,44.90
2019-04-02T05:43:31.475Z,44.90
2019-04-02T05:45:36.703Z,45.60
2019-04-02T05:47:41.603Z,45.00
2019-04-02T05:49:46.463Z,45.00
2019-04-02T05:51:51.423Z,45.20
2019-04-02T05:53:56.414Z,45.20
2019-04-02T05:56:01.667Z,45.30
2019-04-02T05:58:06.608Z,45.50
2019-04-02T06:00:11.837Z,45.50
2019-04-02T06:02:17.450Z,45.60
2019-04-02T06:04:22.502Z,45.60
2019-04-02T06:06:27.362Z,45.60
2019-04-02T06:08:34.774Z,45.60
2019-04-02T06:10:39.822Z,45.60
2019-04-02T06:12:46.614Z,45.60
2019-04-02T06:14:51.461Z,45.60
2019-04-02T06:16:57.890Z,45.80
2019-04-02T06:19:02.844Z,45.70
2019-04-02T06:21:08.280Z,45.70
2019-04-02T06:23:15.262Z,45.80
2019-04-02T06:25:20.024Z,45.70
2019-04-02T06:27:25.013Z,45.80
2019-04-02T06:29:30.290Z,45.70
2019-04-02T06:31:36.320Z,45.80
2019-04-02T06:33:41.120Z,45.70
2019-04-02T06:35:48.850Z,45.80
2019-04-02T06:37:52.810Z,45.80
2019-04-02T06:39:58.242Z,45.80
2019-04-02T06:42:03.479Z,45.80
2019-04-02T06:44:09.396Z,45.80
2019-04-02T06:46:14.721Z,45.80
2019-04-02T06:48:28.894Z,45.70
2019-04-02T06:50:34.693Z,45.60
2019-04-02T06:52:42.057Z,45.90
2019-04-02T06:54:47.508Z,45.90
2019-04-02T06:56:55.501Z,45.60
2019-04-02T06:58:59.463Z,45.70
2019-04-02T07:01:20.464Z,45.80
2019-04-02T07:03:11.326Z,45.90
2019-04-02T07:05:16.136Z,46.60
2019-04-02T07:07:20.926Z,48.30
2019-04-02T07:09:25.914Z,48.40
2019-04-02T07:11:42.478Z,48.60
2019-04-02T07:13:37.514Z,48.60
2019-04-02T07:15:44.911Z,48.70
2019-04-02T07:17:48.766Z,49.00
2019-04-02T07:20:05.615Z,48.50
2019-04-02T07:22:10.533Z,48.90
2019-04-02T07:24:15.373Z,48.90
2019-04-02T07:26:21.519Z,49.00
2019-04-02T07:28:27.935Z,49.00
2019-04-02T07:30:35.316Z,49.00
2019-04-02T07:32:39.980Z,48.80
2019-04-02T07:34:44.915Z,48.80
2019-04-02T07:36:51.683Z,48.90
2019-04-02T07:38:56.735Z,48.70
2019-04-02T07:41:01.632Z,48.70
2019-04-02T07:43:06.468Z,48.60
2019-04-02T07:45:11.327Z,48.60
2019-04-02T07:47:16.160Z,48.80
2019-04-02T07:49:21.056Z,48.60
2019-04-02T07:51:25.846Z,48.40
2019-04-02T07:53:30.582Z,48.30
2019-04-02T07:55:35.537Z,48.30
2019-04-02T07:57:40.578Z,48.30
2019-04-02T07:59:45.486Z,48.30
2019-04-02T08:01:50.414Z,48.30
2019-04-02T08:03:56.466Z,48.30
2019-04-02T08:06:02.303Z,48.20
2019-04-02T08:08:07.682Z,48.30
2019-04-02T08:10:13.224Z,48.30
2019-04-02T08:12:18.780Z,48.20
2019-04-02T08:14:24.034Z,48.10
2019-04-02T08:16:29.524Z,48.30
2019-04-02T08:18:34.745Z,48.00
2019-04-02T08:20:39.548Z,48.20
2019-04-02T08:22:44.830Z,48.00
2019-04-02T08:24:49.788Z,47.90
2019-04-02T08:26:55.403Z,48.20
2019-04-02T08:29:02.872Z,47.90
2019-04-02T08:31:19.524Z,47.90
2019-04-02T08:33:27.036Z,47.90
2019-04-02T08:35:35.739Z,48.00
2019-04-02T08:37:44.166Z,48.00
2019-04-02T08:39:49.990Z,47.90
2019-04-02T08:41:58.019Z,47.80
2019-04-02T08:44:03.318Z,48.30
2019-04-02T08:46:08.834Z,47.60
2019-04-02T08:48:15.499Z,47.70
2019-04-02T08:50:20.514Z,47.50
2019-04-02T08:52:25.826Z,47.50
2019-04-02T08:54:32.522Z,47.60
2019-04-02T08:56:40.293Z,47.50
2019-04-02T08:58:52.016Z,47.50
2019-04-02T09:01:00.222Z,47.40
2019-04-02T09:03:02.417Z,47.40
2019-04-02T09:05:08.666Z,47.40
2019-04-02T09:07:17.262Z,47.20
2019-04-02T09:09:22.018Z,47.20
2019-04-02T09:11:28.712Z,47.30
2019-04-02T09:13:33.894Z,47.20
2019-04-02T09:15:39.529Z,47.20
2019-04-02T09:17:44.600Z,47.20
2019-04-02T09:19:49.852Z,47.10
2019-04-02T09:21:56.749Z,47.10
2019-04-02T09:24:01.661Z,47.10
2019-04-02T09:26:17.771Z,47.10
2019-04-02T09:28:13.643Z,47.00
2019-04-02T09:30:19.271Z,47.00
2019-04-02T09:32:36.075Z,47.10
2019-04-02T09:34:33.052Z,47.10
2019-04-02T09:36:40.758Z,47.10
2019-04-02T09:38:45.514Z,47.00
2019-04-02T09:40:50.917Z,46.90
2019-04-02T09:42:56.376Z,47.00
2019-04-02T09:45:01.704Z,47.10
2019-04-02T09:47:07.654Z,46.80
2019-04-02T09:49:13.153Z,46.80
2019-04-02T09:51:18.406Z,46.80
2019-04-02T09:53:23.511Z,46.80
2019-04-02T09:55:28.706Z,46.60
2019-04-02T09:57:34.357Z,46.60
2019-04-02T09:59:39.306Z,46.50
2019-04-02T10:01:44.408Z,46.60
2019-04-02T10:03:50.063Z,46.50
2019-04-02T10:05:55.190Z,46.30
2019-04-02T10:08:00.477Z,46.30
2019-04-02T10:10:08.496Z,46.30
2019-04-02T10:12:14.830Z,46.20
2019-04-02T10:14:20.081Z,46.20
2019-04-02T10:16:26.538Z,45.90
2019-04-02T10:18:33.216Z,46.70
2019-04-02T10:20:39.734Z,46.00
2019-04-02T10:22:44.771Z,45.90
2019-04-02T10:24:49.918Z,45.80
2019-04-02T10:26:55.956Z,45.60
2019-04-02T10:29:01.856Z,45.50
2019-04-02T10:31:07.206Z,45.50
2019-04-02T10:33:12.142Z,45.30
2019-04-02T10:35:20.425Z,45.40
2019-04-02T10:37:24.333Z,45.30
2019-04-02T10:39:29.666Z,45.40
2019-04-02T10:41:34.759Z,45.30
2019-04-02T10:43:39.536Z,45.00
2019-04-02T10:45:45.308Z,45.10
2019-04-02T10:47:52.537Z,45.10
2019-04-02T10:49:56.716Z,45.20
2019-04-02T10:52:01.883Z,44.90
2019-04-02T10:54:07.759Z,44.90
2019-04-02T10:56:12.896Z,44.70
2019-04-02T10:58:17.658Z,45.00
2019-04-02T11:00:22.338Z,44.70
2019-04-02T11:02:27.093Z,45.00
2019-04-02T11:04:31.888Z,45.00
2019-04-02T11:06:37.976Z,44.90
2019-04-02T11:08:44.515Z,45.30
2019-04-02T11:10:49.312Z,44.80
2019-04-02T11:12:54.193Z,44.90
2019-04-02T11:14:59.062Z,45.00
2019-04-02T11:17:03.918Z,44.70
2019-04-02T11:19:08.630Z,44.70
2019-04-02T11:21:13.359Z,44.80
2019-04-02T11:23:18.198Z,44.70
2019-04-02T11:25:23.282Z,44.50
2019-04-02T11:27:29.119Z,44.00
2019-04-02T11:29:34.097Z,44.40
2019-04-02T11:31:38.814Z,44.50
2019-04-02T11:33:43.592Z,44.50
2019-04-02T11:35:48.333Z,44.20
2019-04-02T11:37:53.238Z,43.90
2019-04-02T11:39:58.053Z,44.10
2019-04-02T11:42:03.093Z,44.00
2019-04-02T11:44:07.956Z,44.20
2019-04-02T11:46:27.612Z,43.60
2019-04-02T11:48:31.614Z,43.60
2019-04-02T11:50:37.825Z,43.70
2019-04-02T11:52:42.589Z,43.90
2019-04-02T11:54:47.478Z,43.50
2019-04-02T11:56:53.923Z,43.50
2019-04-02T11:58:59.083Z,43.70
2019-04-02T12:01:04.856Z,43.60
2019-04-02T12:03:10.079Z,43.40
2019-04-02T12:05:21.234Z,43.10
2019-04-02T12:07:24.067Z,43.00
2019-04-02T12:09:30.767Z,43.30
2019-04-02T12:11:35.609Z,43.30
2019-04-02T12:13:41.814Z,42.90
2019-04-02T12:15:50.211Z,42.70
2019-04-02T12:17:53.402Z,43.00
2019-04-02T12:19:58.185Z,43.10
2019-04-02T12:22:03.124Z,43.10
2019-04-02T12:24:07.927Z,42.60
2019-04-02T12:26:12.651Z,42.60
2019-04-02T12:28:17.557Z,42.80
2019-04-02T12:30:22.299Z,42.80
2019-04-02T12:32:27.015Z,42.50
2019-04-02T12:34:31.831Z,42.70
2019-04-02T12:36:37.735Z,42.50
2019-04-02T12:38:42.675Z,42.70
2019-04-02T12:40:47.694Z,42.80
2019-04-02T12:42:52.401Z,42.60
2019-04-02T12:44:57.127Z,42.30
2019-04-02T12:47:01.893Z,42.50
2019-04-02T12:49:07.729Z,42.50
2019-04-02T12:51:12.714Z,42.70
2019-04-02T12:53:17.494Z,42.40
2019-04-02T12:55:22.550Z,42.30
2019-04-02T12:57:27.350Z,42.40
2019-04-02T12:59:32.141Z,42.60
2019-04-02T13:01:37.177Z,42.60
2019-04-02T13:03:42.113Z,42.20
2019-04-02T13:05:58.080Z,42.10
2019-04-02T13:07:53.455Z,42.60
2019-04-02T13:09:58.242Z,42.40
2019-04-02T13:12:06.083Z,42.50
2019-04-02T13:14:09.635Z,42.20
2019-04-02T13:16:14.478Z,42.00
2019-04-02T13:18:19.262Z,42.30
2019-04-02T13:20:24.315Z,42.30
2019-04-02T13:22:29.000Z,42.40
2019-04-02T13:24:33.950Z,42.00
2019-04-02T13:26:38.894Z,41.90
2019-04-02T13:28:44.938Z,42.00
2019-04-02T13:30:50.128Z,42.20
2019-04-02T13:32:55.916Z,42.10
2019-04-02T13:35:01.557Z,42.10
2019-04-02T13:37:08.125Z,42.10
2019-04-02T13:39:13.075Z,42.10
2019-04-02T13:41:17.801Z,42.20
2019-04-02T13:43:22.534Z,41.80
2019-04-02T13:45:27.394Z,41.70
2019-04-02T13:47:34.012Z,42.00
2019-04-02T13:49:41.308Z,42.00
2019-04-02T13:51:45.197Z,41.90
2019-04-02T13:53:49.983Z,41.80
2019-04-02T13:55:54.752Z,41.70
2019-04-02T13:57:59.621Z,41.90
2019-04-02T14:00:05.827Z,42.10
2019-04-02T14:02:11.045Z,41.90
2019-04-02T14:04:15.784Z,41.90
2019-04-02T14:06:20.661Z,41.90
2019-04-02T14:08:25.439Z,41.90
2019-04-02T14:10:32.609Z,42.00
2019-04-02T14:12:36.855Z,42.00
2019-04-02T14:14:41.803Z,42.00
2019-04-02T14:16:46.666Z,41.90
2019-04-02T14:18:51.560Z,41.80
2019-04-02T14:20:56.355Z,41.90
2019-04-02T14:23:01.186Z,41.70
2019-04-02T14:25:07.020Z,41.90
2019-04-02T14:27:11.921Z,41.80
2019-04-02T14:29:17.634Z,41.70
2019-04-02T14:31:27.911Z,41.70
2019-04-02T14:33:37.120Z,41.80
2019-04-02T14:36:12.346Z,41.90
2019-04-02T14:38:15.373Z,41.70
2019-04-02T14:40:30.005Z,41.70
2019-04-02T14:42:46.296Z,41.70
2019-04-02T14:45:02.325Z,41.70
2019-04-02T14:47:23.105Z,41.60
2019-04-02T14:49:37.128Z,41.70
2019-04-02T14:51:45.815Z,41.60
2019-04-02T14:54:04.492Z,41.70
2019-04-02T14:56:15.125Z,41.70
2019-04-02T14:58:30.189Z,41.60
2019-04-02T15:00:37.112Z,41.70
2019-04-02T15:02:44.940Z,41.70
2019-04-02T15:04:58.235Z,41.70
2019-04-02T15:07:09.015Z,41.70
2019-04-02T15:09:23.712Z,41.70
2019-04-02T15:11:35.496Z,41.70
2019-04-02T15:13:48.976Z,41.70
2019-04-02T15:16:12.421Z,41.70
2019-04-02T15:18:27.927Z,41.50
2019-04-02T15:20:35.806Z,41.60
2019-04-02T15:22:40.632Z,41.50
2019-04-02T15:24:46.354Z,41.60
2019-04-02T15:26:53.132Z,41.70
2019-04-02T15:29:06.811Z,41.70
2019-04-02T15:31:14.032Z,41.70
2019-04-02T15:33:19.584Z,41.70
2019-04-02T15:35:26.776Z,41.70
2019-04-02T15:37:38.758Z,41.70
2019-04-02T15:39:52.057Z,41.70
2019-04-02T15:42:01.661Z,41.70
2019-04-02T15:44:10.706Z,41.70
2019-04-02T15:46:19.480Z,41.60
2019-04-02T15:48:36.050Z,41.60
2019-04-02T15:50:47.519Z,41.60
2019-04-02T15:52:53.152Z,41.60
2019-04-02T15:55:05.055Z,41.80
2019-04-02T15:57:09.507Z,41.90
2019-04-02T15:59:18.626Z,41.80
2019-04-02T16:01:32.227Z,42.00
2019-04-02T16:03:54.294Z,41.90
2019-04-02T16:06:09.224Z,41.90
2019-04-02T16:08:16.458Z,41.90
2019-04-02T16:10:22.743Z,41.90
2019-04-02T16:12:29.608Z,42.10
2019-04-02T16:14:38.260Z,42.20
2019-04-02T16:16:43.388Z,41.90
2019-04-02T16:18:49.926Z,42.10
2019-04-02T16:20:55.911Z,42.10
2019-04-02T16:23:04.930Z,42.20
2019-04-02T16:25:14.034Z,42.20
2019-04-02T16:27:21.471Z,41.90
2019-04-02T16:29:29.545Z,42.10
2019-04-02T16:31:43.851Z,42.20
2019-04-02T16:34:02.076Z,42.40
2019-04-02T16:36:22.972Z,42.30
2019-04-02T16:38:45.272Z,42.20
2019-04-02T16:41:04.818Z,42.30
2019-04-02T16:43:31.653Z,42.40
2019-04-02T16:46:00.601Z,42.50
2019-04-02T16:48:15.056Z,42.50
2019-04-02T16:50:31.067Z,42.60
2019-04-02T16:52:36.478Z,42.50
2019-04-02T16:54:45.399Z,42.70
2019-04-02T16:57:45.921Z,42.70
2019-04-02T16:59:50.377Z,42.70
2019-04-02T17:01:55.747Z,42.90
2019-04-02T17:04:02.574Z,43.10
2019-04-02T17:06:07.499Z,43.10
2019-04-02T17:08:12.350Z,43.20
2019-04-02T17:10:17.113Z,43.20
2019-04-02T17:12:22.259Z,43.10
2019-04-02T17:14:47.240Z,43.10
2019-04-02T17:16:55.564Z,43.20
2019-04-02T17:19:01.752Z,43.20
2019-04-02T17:21:06.482Z,43.20
2019-04-02T17:23:12.544Z,43.10
2019-04-02T17:25:30.061Z,43.20
2019-04-02T17:27:39.048Z,43.30
2019-04-02T17:29:43.789Z,43.30
2019-04-02T17:31:48.563Z,43.30
2019-04-02T17:33:58.235Z,43.30
2019-04-02T17:36:09.912Z,43.30
2019-04-02T17:38:15.519Z,43.40
2019-04-02T17:40:20.463Z,43.40
2019-04-02T17:42:25.390Z,43.30
2019-04-02T17:44:31.392Z,43.30
2019-04-02T17:46:36.221Z,43.40
2019-04-02T17:48:40.989Z,43.50
2019-04-02T17:50:46.072Z,43.40
2019-04-02T17:53:10.919Z,43.40
2019-04-02T17:55:18.077Z,43.40
2019-04-02T17:57:23.182Z,43.60
2019-04-02T17:59:29.105Z,43.90
2019-04-02T18:01:33.888Z,43.70
2019-04-02T18:03:38.884Z,43.80
2019-04-02T18:05:43.825Z,44.20
2019-04-02T18:07:51.716Z,44.80
2019-04-02T18:09:56.530Z,45.20
2019-04-02T18:12:02.831Z,45.20
2019-04-02T18:14:08.179Z,45.30
2019-04-02T18:16:12.989Z,45.70
2019-04-02T18:18:17.875Z,45.80
2019-04-02T18:20:22.706Z,46.20
2019-04-02T18:22:27.639Z,45.80
2019-04-02T18:24:32.489Z,46.00
2019-04-02T18:26:37.976Z,46.50
2019-04-02T18:28:43.857Z,46.90
2019-04-02T18:30:58.323Z,46.70
2019-04-02T18:33:03.403Z,46.50
2019-04-02T18:36:07.471Z,46.70
2019-04-02T18:38:27.166Z,47.20
2019-04-02T18:42:04.492Z,47.30
2019-04-02T18:44:13.826Z,47.30
2019-04-02T18:50:39.696Z,47.60
2019-04-02T18:53:12.615Z,48.10
2019-04-02T18:55:29.127Z,48.20
2019-04-02T18:57:35.130Z,48.20
2019-04-02T18:59:40.584Z,48.50
2019-04-02T19:01:54.618Z,48.30
2019-04-02T19:03:51.968Z,48.20
2019-04-02T19:05:56.736Z,48.20
2019-04-02T19:08:01.522Z,48.20
2019-04-02T19:10:13.530Z,48.10
2019-04-02T19:12:13.768Z,48.00
2019-04-02T19:14:18.640Z,48.10
2019-04-02T19:16:25.235Z,48.20
2019-04-02T19:18:30.178Z,48.30
2019-04-02T19:20:35.413Z,48.30
2019-04-02T19:22:41.364Z,48.20
2019-04-02T19:24:46.180Z,48.30
2019-04-02T19:26:51.081Z,48.20
2019-04-02T19:28:55.975Z,48.20
2019-04-02T19:31:00.818Z,48.20
2019-04-02T19:33:05.858Z,48.20
2019-04-02T19:35:12.152Z,48.00
2019-04-02T19:37:17.310Z,48.20
2019-04-02T19:39:22.283Z,48.20
2019-04-02T19:41:27.151Z,48.50
2019-04-02T19:43:31.999Z,48.00
2019-04-02T19:45:37.031Z,48.00
2019-04-02T19:47:41.956Z,48.00
2019-04-02T19:49:46.993Z,48.40
2019-04-02T19:51:51.770Z,48.00
2019-04-02T19:53:56.769Z,48.10
2019-04-02T19:56:01.635Z,48.10
2019-04-02T19:58:06.418Z,48.20
2019-04-02T20:00:11.602Z,48.30
2019-04-02T20:02:16.388Z,48.00
2019-04-02T20:04:21.211Z,48.00
2019-04-02T20:06:26.079Z,48.30
2019-04-02T20:08:32.392Z,48.70
2019-04-02T20:10:37.570Z,48.70
2019-04-02T20:12:42.378Z,48.40
2019-04-02T20:14:47.859Z,48.30
2019-04-02T20:16:53.726Z,48.10
2019-04-02T20:18:58.623Z,48.20
2019-04-02T20:21:03.469Z,48.10
2019-04-02T20:23:08.290Z,48.10
2019-04-02T20:25:13.815Z,48.10
2019-04-02T20:27:20.196Z,48.20
2019-04-02T20:29:25.861Z,48.10
2019-04-02T20:31:30.742Z,48.10
2019-04-02T20:33:35.578Z,47.90
2019-04-02T20:35:40.471Z,47.90
2019-04-02T20:37:45.244Z,48.70
2019-04-02T20:39:50.013Z,47.80
2019-04-02T20:41:55.127Z,47.90
2019-04-02T20:43:59.925Z,47.90
2019-04-02T20:46:04.849Z,47.90
2019-04-02T20:48:09.825Z,47.90
2019-04-02T20:50:14.655Z,47.90
2019-04-02T20:52:19.398Z,47.90
2019-04-02T20:54:24.255Z,47.90
2019-04-02T20:56:29.115Z,47.80
2019-04-02T20:58:34.057Z,47.80
2019-04-02T21:00:39.101Z,47.90
2019-04-02T21:02:51.765Z,47.90
2019-04-02T21:04:52.558Z,47.70
2019-04-02T21:06:57.382Z,47.80
2019-04-02T21:09:02.440Z,47.90
2019-04-02T21:11:10.730Z,48.00
2019-04-02T21:13:18.321Z,48.10
2019-04-02T21:15:24.356Z,48.10
2019-04-02T21:17:28.456Z,48.20
2019-04-02T21:19:33.312Z,48.00
2019-04-02T21:21:38.860Z,48.00
2019-04-02T21:23:43.705Z,48.00
2019-04-02T21:25:49.567Z,48.00
2019-04-02T21:27:56.789Z,48.10
2019-04-02T21:30:01.613Z,48.10
2019-04-02T21:32:06.727Z,48.00
2019-04-02T21:34:11.552Z,47.90
2019-04-02T21:36:16.544Z,48.10
2019-04-02T21:38:22.853Z,48.00
2019-04-02T21:40:27.799Z,48.30
2019-04-02T21:42:33.541Z,48.30
2019-04-02T21:44:39.086Z,48.40
2019-04-02T21:46:43.955Z,48.50
2019-04-02T21:48:48.725Z,48.60
2019-04-02T21:50:53.667Z,48.30
2019-04-02T21:52:58.367Z,48.40
2019-04-02T21:55:05.946Z,48.60
2019-04-02T21:57:12.059Z,48.60
2019-04-02T21:59:17.451Z,48.60
2019-04-02T22:01:22.272Z,48.70
2019-04-02T22:03:27.128Z,48.80
2019-04-02T22:05:31.927Z,48.80
2019-04-02T22:07:36.809Z,48.90
2019-04-02T22:09:42.296Z,48.80
2019-04-02T22:11:47.583Z,48.80
2019-04-02T22:13:52.458Z,48.80
2019-04-02T22:15:58.469Z,48.80
2019-04-02T22:18:03.268Z,48.90
2019-04-02T22:20:08.107Z,48.90
2019-04-02T22:22:13.245Z,48.80
2019-04-02T22:24:18.498Z,48.90
2019-04-02T22:26:23.266Z,48.90
2019-04-02T22:28:28.127Z,48.60
2019-04-02T22:30:33.087Z,48.70
2019-04-02T22:32:46.411Z,48.90
2019-04-02T22:34:49.448Z,48.80
2019-04-02T22:36:50.775Z,48.90
2019-04-02T22:38:55.697Z,48.80
2019-04-02T22:41:00.633Z,48.90
2019-04-02T22:43:05.456Z,48.90
2019-04-02T22:45:10.246Z,48.80
2019-04-02T22:47:15.963Z,48.80
2019-04-02T22:49:20.715Z,49.10
2019-04-02T22:51:25.790Z,48.90
2019-04-02T22:53:30.740Z,49.00
2019-04-02T22:55:35.506Z,49.00
2019-04-02T22:57:40.315Z,48.90
2019-04-02T22:59:45.128Z,49.00
2019-04-02T23:01:50.044Z,48.90
2019-04-02T23:03:54.747Z,48.90
2019-04-02T23:06:00.760Z,49.00
2019-04-02T23:08:07.933Z,49.00
2019-04-02T23:10:12.926Z,48.90
2019-04-02T23:12:17.753Z,49.10
2019-04-02T23:14:22.477Z,49.10
2019-04-02T23:16:29.941Z,49.10
2019-04-02T23:18:35.376Z,49.10
2019-04-02T23:20:40.272Z,49.10
2019-04-02T23:22:46.080Z,49.10
2019-04-02T23:24:51.287Z,49.10
2019-04-02T23:26:56.047Z,49.10
2019-04-02T23:29:00.838Z,49.00
2019-04-02T23:31:06.551Z,49.00
2019-04-02T23:33:12.281Z,49.20
2019-04-02T23:35:17.200Z,49.00
2019-04-02T23:37:22.161Z,49.00
2019-04-02T23:39:26.948Z,49.20
2019-04-02T23:41:33.156Z,49.20
2019-04-02T23:43:38.346Z,49.10
2019-04-02T23:45:43.911Z,49.00
2019-04-02T23:47:49.756Z,48.90
2019-04-02T23:49:54.551Z,48.90
2019-04-02T23:51:59.406Z,49.10
2019-04-02T23:54:04.196Z,48.80
2019-04-02T23:56:09.086Z,48.90
2019-04-02T23:58:13.873Z,49.10
